Time;durP1;ratioP1;P1;durP2;ratioP2;P2;SDS_P1;SDS_P2;PMS_P1;PMS_P2;Temp;Humidity;BMP_temperature;BMP_pressure;BME280_temperature;BME280_humidity;BME280_pressure;Samples;Min_cycle;Max_cycle;Signal;HPM_P1;HPM_P2
2023/05/18 00:01:52;;;;;;;;;1.75;1.75;;;;;22.55;38.09;101895.47;5051489;28;45388;-82
2023/05/18 00:04:22;;;;;;;;;1.50;1.50;;;;;22.56;38.15;101894.56;5075739;27;47227;-83
2023/05/18 00:06:55;;;;;;;;;1.25;1.25;;;;;22.56;38.07;101898.06;5070331;27;45468;-82
2023/05/18 00:09:26;;;;;;;;;0.50;0.50;;;;;22.56;38.10;101895.41;5060038;28;45332;-82
2023/05/18 00:11:52;;;;;;;;;2.00;1.25;;;;;22.55;37.88;101893.66;5077083;27;45623;-82
2023/05/18 00:14:18;;;;;;;;;4.75;2.00;;;;;22.52;37.94;101891.22;5075492;27;62336;-81
2023/05/18 00:16:43;;;;;;;;;1.00;0.25;;;;;22.52;37.96;101890.31;5074405;28;45454;-82
2023/05/18 00:19:09;;;;;;;;;2.00;2.00;;;;;22.53;38.03;101887.56;5073265;27;45443;-81
2023/05/18 00:21:34;;;;;;;;;1.50;1.25;;;;;22.52;37.92;101883.19;5063346;28;45544;-81
2023/05/18 00:24:00;;;;;;;;;1.00;1.00;;;;;22.50;37.80;101884.22;5076347;27;45689;-81
2023/05/18 00:26:29;;;;;;;;;3.00;2.00;;;;;22.54;37.85;101891.97;5063005;28;45553;-81
2023/05/18 00:28:54;;;;;;;;;1.75;1.75;;;;;22.43;38.26;101867.72;5056906;28;45397;-81
2023/05/18 00:31:20;;;;;;;;;3.00;2.25;;;;;22.48;38.21;101878.97;5057507;28;45442;-81
2023/05/18 00:33:45;;;;;;;;;2.00;2.00;;;;;22.48;37.71;101876.31;5053961;27;48125;-80
2023/05/18 00:36:11;;;;;;;;;1.25;1.00;;;;;22.39;38.24;101862.66;5060270;28;45443;-81
2023/05/18 00:38:36;;;;;;;;;2.00;1.00;;;;;22.50;37.95;101866.41;5060451;28;45279;-81
2023/05/18 00:41:01;;;;;;;;;0.75;0.75;;;;;22.48;37.83;101865.63;5071160;28;45472;-81
2023/05/18 00:43:27;;;;;;;;;1.00;1.00;;;;;22.52;37.70;101880.53;5060503;28;50314;-81
2023/05/18 00:45:52;;;;;;;;;1.25;0.50;;;;;22.51;37.97;101881.47;5072789;27;45653;-82
2023/05/18 00:48:17;;;;;;;;;2.00;2.00;;;;;22.50;37.60;101876.22;5056419;28;52559;-81
2023/05/18 00:50:43;;;;;;;;;4.25;2.00;;;;;22.46;37.88;101867.53;5069628;27;45299;-81
2023/05/18 00:53:09;;;;;;;;;1.25;1.00;;;;;22.49;37.78;101871.84;5073287;27;45480;-81
2023/05/18 00:55:35;;;;;;;;;1.00;0.25;;;;;22.47;37.80;101877.28;5081842;27;45485;-80
2023/05/18 00:58:01;;;;;;;;;3.00;2.00;;;;;22.44;37.63;101874.78;5081353;27;45392;-80
2023/05/18 01:00:27;;;;;;;;;2.00;1.00;;;;;22.49;37.98;101886.03;5073960;27;45331;-80
2023/05/18 01:02:53;;;;;;;;;2.50;1.25;;;;;22.50;37.75;101879.75;5063728;28;46150;-80
2023/05/18 01:05:20;;;;;;;;;2.00;2.00;;;;;22.48;37.90;101878.97;5069896;27;45480;-81
2023/05/18 01:07:47;;;;;;;;;1.00;1.00;;;;;22.49;37.86;101871.84;5068080;28;45286;-79
2023/05/18 01:10:15;;;;;;;;;1.25;0.75;;;;;22.48;37.94;101870.13;5068059;27;45442;-78
2023/05/18 01:12:54;;;;;;;;;3.00;1.00;;;;;22.49;37.75;101879.84;5064653;28;45613;-79
2023/05/18 01:15:34;;;;;;;;;0.25;0.25;;;;;22.46;37.69;101870.22;5060419;27;45833;-79
2023/05/18 01:18:05;;;;;;;;;1.00;1.00;;;;;22.48;37.71;101875.47;5067551;28;45546;-79
2023/05/18 01:20:48;;;;;;;;;2.00;1.75;;;;;22.44;37.58;101872.13;5068794;28;45264;-79
2023/05/18 01:23:22;;;;;;;;;2.00;1.75;;;;;22.48;37.68;101875.47;5056804;28;47317;-80
2023/05/18 01:25:54;;;;;;;;;1.00;1.00;;;;;22.46;37.72;101880.88;5071497;27;45567;-81
2023/05/18 01:28:25;;;;;;;;;3.00;1.00;;;;;22.45;37.82;101872.97;5072728;28;45433;-80
2023/05/18 01:30:51;;;;;;;;;1.50;1.50;;;;;22.45;38.11;101872.97;5073702;28;45363;-80
2023/05/18 01:33:16;;;;;;;;;2.75;1.50;;;;;22.42;37.72;101867.84;5057177;28;46967;-80
2023/05/18 01:35:47;;;;;;;;;1.00;1.00;;;;;22.43;37.53;101873.06;5054594;28;45995;-80
2023/05/18 01:38:23;;;;;;;;;2.25;0.25;;;;;22.43;37.85;101874.88;5055996;28;45421;-80
2023/05/18 01:40:53;;;;;;;;;1.75;1.50;;;;;22.46;37.68;101880.88;5056038;28;46002;-79
2023/05/18 01:43:22;;;;;;;;;1.25;1.00;;;;;22.43;37.87;101878.38;5056746;28;47413;-79
2023/05/18 01:45:50;;;;;;;;;1.00;1.00;;;;;22.42;37.94;101876.69;5064425;28;45620;-78
2023/05/18 01:48:20;;;;;;;;;1.50;1.00;;;;;22.43;37.73;101877.53;5053145;28;45232;-77
2023/05/18 01:50:47;;;;;;;;;1.50;1.25;;;;;22.44;37.82;101881.94;5059205;28;45699;-77
2023/05/18 01:53:23;;;;;;;;;1.00;1.00;;;;;22.44;37.81;101876.59;5058922;28;47284;-77
2023/05/18 01:55:50;;;;;;;;;0.75;0.50;;;;;22.43;37.71;101874.88;5081839;27;46015;-77
2023/05/18 01:58:16;;;;;;;;;2.00;0.25;;;;;22.40;37.71;101875.91;5074605;27;45376;-80
2023/05/18 02:00:43;;;;;;;;;2.00;2.00;;;;;22.40;37.95;101872.38;5068887;27;45756;-81
2023/05/18 02:03:08;;;;;;;;;2.00;2.00;;;;;22.41;37.64;101874.09;5080055;27;45375;-80
2023/05/18 02:05:33;;;;;;;;;1.00;1.00;;;;;22.41;38.01;101874.09;5076201;27;62827;-80
2023/05/18 02:07:59;;;;;;;;;2.00;1.00;;;;;22.40;37.87;101883.91;5070936;28;58493;-80
2023/05/18 02:10:24;;;;;;;;;5.00;0.00;;;;;22.36;37.58;101874.38;5074836;28;45959;-80
2023/05/18 02:12:51;;;;;;;;;1.75;1.75;;;;;22.40;37.58;101872.38;5075738;28;45509;-80
2023/05/18 02:15:17;;;;;;;;;2.00;2.00;;;;;22.39;37.64;101868.84;5068400;28;45476;-80
2023/05/18 02:17:42;;;;;;;;;0.25;0.25;;;;;22.38;37.54;101869.78;5068098;27;45336;-80
2023/05/18 02:20:08;;;;;;;;;1.75;1.25;;;;;22.37;38.00;101878.75;5059998;28;68971;-78
2023/05/18 02:22:34;;;;;;;;;1.25;1.25;;;;;22.37;37.54;101874.28;5069618;28;45319;-78
2023/05/18 02:25:00;;;;;;;;;1.00;1.00;;;;;22.39;38.04;101876.84;5072925;28;45529;-79
2023/05/18 02:27:25;;;;;;;;;1.00;1.00;;;;;22.35;37.58;101867.31;5078219;27;45662;-79
2023/05/18 02:29:51;;;;;;;;;1.25;0.25;;;;;22.35;37.96;101876.19;5067085;27;45296;-78
2023/05/18 02:32:16;;;;;;;;;1.75;1.75;;;;;22.37;37.43;101882.28;5078064;28;47518;-76
2023/05/18 02:34:42;;;;;;;;;2.25;0.25;;;;;22.36;37.50;101882.38;5072046;27;45415;-76
2023/05/18 02:37:07;;;;;;;;;1.00;1.00;;;;;22.37;37.97;101886.75;5068779;27;45475;-76
2023/05/18 02:39:33;;;;;;;;;1.00;1.00;;;;;22.36;37.71;101887.69;5070805;27;45359;-75
2023/05/18 02:41:58;;;;;;;;;2.75;1.00;;;;;22.35;37.33;101886.00;5077134;27;45373;-75
2023/05/18 02:44:24;;;;;;;;;3.00;1.00;;;;;22.36;37.76;101885.03;5054175;28;45563;-76
2023/05/18 02:46:49;;;;;;;;;0.75;0.75;;;;;22.34;37.81;101885.13;5059250;28;45408;-76
2023/05/18 02:49:15;;;;;;;;;2.00;2.00;;;;;22.34;37.59;101885.13;5074516;27;45594;-76
2023/05/18 02:51:40;;;;;;;;;1.00;1.00;;;;;22.34;37.64;101882.44;5057599;28;47230;-75
2023/05/18 02:54:05;;;;;;;;;3.00;1.00;;;;;22.33;37.67;101886.09;5070785;27;48258;-77
2023/05/18 02:56:32;;;;;;;;;1.25;1.25;;;;;22.33;37.89;101880.75;5054350;28;53340;-78
2023/05/18 02:58:59;;;;;;;;;1.25;1.00;;;;;22.34;37.95;101884.25;5071626;27;46414;-78
2023/05/18 03:01:25;;;;;;;;;0.75;0.75;;;;;22.35;37.71;101888.66;5055374;28;47263;-78
2023/05/18 03:03:51;;;;;;;;;2.75;2.00;;;;;22.34;37.36;101886.94;5066397;27;46226;-78
2023/05/18 03:06:21;;;;;;;;;1.00;1.00;;;;;22.32;37.92;101881.69;5087063;27;45322;-78
2023/05/18 03:08:47;;;;;;;;;1.50;1.50;;;;;22.31;37.78;101879.09;5078073;27;45612;-78
2023/05/18 03:11:13;;;;;;;;;2.00;2.00;;;;;22.34;37.31;101881.59;5067180;28;47263;-78
2023/05/18 03:13:38;;;;;;;;;2.00;1.00;;;;;22.32;37.47;101879.00;5074232;28;72153;-76
2023/05/18 03:16:04;;;;;;;;;1.00;0.00;;;;;22.34;37.54;101892.25;5073991;27;45805;-76
2023/05/18 03:18:30;;;;;;;;;1.50;0.25;;;;;22.30;37.76;101878.25;5074524;27;45506;-76
2023/05/18 03:21:00;;;;;;;;;3.00;2.00;;;;;22.32;37.74;101876.34;5070827;27;45730;-76
2023/05/18 03:23:26;;;;;;;;;0.50;0.50;;;;;22.33;37.83;101874.56;5079516;27;45817;-77
2023/05/18 03:25:53;;;;;;;;;0.25;0.25;;;;;22.28;37.71;101871.31;5054763;27;45337;-76
2023/05/18 03:28:19;;;;;;;;;1.25;0.25;;;;;22.32;37.85;101870.16;5079908;27;45445;-76
2023/05/18 03:30:45;;;;;;;;;2.00;1.00;;;;;22.30;37.36;101872.06;5077024;27;45568;-76
2023/05/18 03:33:12;;;;;;;;;1.25;1.25;;;;;22.27;37.65;101867.75;5060684;28;45308;-76
2023/05/18 03:35:41;;;;;;;;;3.00;2.00;;;;;22.31;37.93;101873.75;5059051;27;46404;-76
2023/05/18 03:38:09;;;;;;;;;3.25;1.25;;;;;22.31;37.27;101874.66;5075719;28;45521;-77
2023/05/18 03:40:35;;;;;;;;;3.00;0.25;;;;;22.17;37.84;101851.41;5059588;27;47405;-76
2023/05/18 03:43:00;;;;;;;;;1.00;1.00;;;;;22.30;37.62;101867.59;5074729;28;45343;-75
2023/05/18 03:45:26;;;;;;;;;1.25;1.25;;;;;22.29;37.16;101865.88;5073853;27;45415;-76
2023/05/18 03:47:51;;;;;;;;;1.25;1.00;;;;;22.30;37.78;101869.41;5068293;27;45524;-76
2023/05/18 03:50:17;;;;;;;;;1.50;1.50;;;;;22.30;37.60;101874.72;5059782;27;46861;-75
2023/05/18 03:52:43;;;;;;;;;1.00;1.00;;;;;22.30;37.29;101874.72;5057896;28;45473;-74
2023/05/18 03:55:14;;;;;;;;;1.25;1.25;;;;;22.20;37.65;101855.69;5075423;28;46029;-75
2023/05/18 03:57:40;;;;;;;;;2.75;1.00;;;;;22.22;37.52;101856.47;5068455;28;45252;-75
2023/05/18 04:00:12;;;;;;;;;3.00;1.75;;;;;22.26;37.23;101866.03;5071000;27;46575;-76
2023/05/18 04:02:38;;;;;;;;;2.75;2.00;;;;;22.20;37.56;101861.03;5064283;28;45481;-75
2023/05/18 04:05:04;;;;;;;;;1.50;1.50;;;;;22.24;37.27;101867.94;5066858;27;45634;-76
2023/05/18 04:07:29;;;;;;;;;1.50;1.25;;;;;22.26;37.22;101879.34;5063025;27;45336;-75
2023/05/18 04:09:55;;;;;;;;;3.00;2.00;;;;;22.27;37.34;101880.25;5070121;27;56904;-76
2023/05/18 04:12:21;;;;;;;;;1.00;1.00;;;;;22.27;37.72;101883.75;5062642;28;45453;-75
2023/05/18 04:14:48;;;;;;;;;2.00;2.00;;;;;22.26;37.51;101879.34;5058336;28;45547;-75
2023/05/18 04:17:16;;;;;;;;;0.50;0.50;;;;;22.26;37.56;101883.84;5066536;27;45362;-75
2023/05/18 04:19:41;;;;;;;;;2.50;1.25;;;;;22.27;37.34;101888.25;5074195;27;45401;-75
2023/05/18 04:22:06;;;;;;;;;2.50;0.75;;;;;22.23;37.17;101890.19;5077067;27;45394;-75
2023/05/18 04:24:33;;;;;;;;;2.00;2.00;;;;;22.24;37.48;101889.25;5079052;27;45418;-75
2023/05/18 04:26:59;;;;;;;;;1.75;1.25;;;;;22.23;37.36;101884.88;5074774;27;45445;-75
2023/05/18 04:29:26;;;;;;;;;0.75;0.00;;;;;22.24;36.96;101897.25;5089440;27;46128;-75
2023/05/18 04:31:52;;;;;;;;;1.75;0.75;;;;;22.25;37.35;101893.63;5090395;27;45659;-75
2023/05/18 04:34:18;;;;;;;;;3.00;1.00;;;;;22.23;37.35;101892.00;5073755;27;45496;-75
2023/05/18 04:36:46;;;;;;;;;2.00;2.00;;;;;22.19;37.11;101886.84;5069960;28;45315;-75
2023/05/18 04:39:12;;;;;;;;;1.00;1.00;;;;;22.20;37.66;101895.69;5051858;28;47323;-75
2023/05/18 04:41:37;;;;;;;;;0.25;0.25;;;;;22.25;37.36;101911.44;5070141;27;45908;-75
2023/05/18 04:44:03;;;;;;;;;1.00;1.00;;;;;22.18;37.48;101898.44;5070690;27;45469;-75
2023/05/18 04:46:29;;;;;;;;;2.25;1.00;;;;;22.22;37.28;101901.78;5076044;28;45419;-75
2023/05/18 04:48:56;;;;;;;;;3.00;1.00;;;;;22.22;37.42;101908.94;5073420;28;46952;-75
2023/05/18 04:51:22;;;;;;;;;1.25;1.25;;;;;22.23;37.27;101910.69;5075769;27;45391;-75
2023/05/18 04:53:49;;;;;;;;;1.25;1.25;;;;;22.23;37.29;101914.19;5087245;27;45395;-75
2023/05/18 04:56:15;;;;;;;;;1.00;1.00;;;;;22.20;37.24;101914.34;5087491;27;45551;-75
2023/05/18 04:58:47;;;;;;;;;2.00;1.25;;;;;22.21;37.62;101912.56;5059929;28;47294;-75
2023/05/18 05:01:14;;;;;;;;;3.00;1.75;;;;;22.23;37.26;101905.34;5077325;28;45689;-75
2023/05/18 05:03:40;;;;;;;;;2.50;2.50;;;;;22.21;37.34;101901.91;5070767;27;45517;-75
2023/05/18 05:06:06;;;;;;;;;1.50;1.25;;;;;22.13;37.02;101897.00;5074792;27;45527;-75
2023/05/18 05:08:31;;;;;;;;;1.00;1.00;;;;;22.22;37.43;101914.28;5085108;27;46772;-75
2023/05/18 05:10:56;;;;;;;;;2.00;2.00;;;;;22.17;37.33;101912.75;5068630;28;45917;-75
2023/05/18 05:13:22;;;;;;;;;1.25;1.25;;;;;22.19;37.07;101915.31;5064861;28;45631;-75
2023/05/18 05:15:47;;;;;;;;;3.00;1.00;;;;;22.19;37.41;101912.66;5051593;28;68224;-75
2023/05/18 05:18:12;;;;;;;;;0.00;0.00;;;;;22.17;37.13;101911.91;5066709;27;47090;-74
2023/05/18 05:20:38;;;;;;;;;1.00;0.75;;;;;22.19;37.50;101912.66;5051821;28;59629;-74
2023/05/18 05:23:03;;;;;;;;;3.50;2.00;;;;;22.17;37.26;101914.56;5094385;27;45467;-74
2023/05/18 05:25:28;;;;;;;;;1.75;1.75;;;;;22.18;37.37;101924.25;5073979;27;70069;-75
2023/05/18 05:27:54;;;;;;;;;1.75;1.75;;;;;22.18;37.06;101914.44;5077785;27;50333;-75
2023/05/18 05:30:19;;;;;;;;;3.00;1.75;;;;;22.17;37.45;101919.88;5057908;28;45980;-74
2023/05/18 05:32:45;;;;;;;;;2.75;1.25;;;;;22.19;37.04;101912.66;5091506;27;45496;-74
2023/05/18 05:35:10;;;;;;;;;1.50;1.00;;;;;22.18;37.47;101921.59;5060232;28;45457;-75
2023/05/18 05:37:35;;;;;;;;;1.00;0.75;;;;;22.19;37.45;101926.00;5072682;27;66367;-75
2023/05/18 05:40:01;;;;;;;;;1.25;1.00;;;;;22.17;36.93;101920.75;5056965;28;45446;-74
2023/05/18 05:42:26;;;;;;;;;2.50;2.25;;;;;22.16;37.14;101921.69;5069732;28;45312;-74
2023/05/18 05:44:51;;;;;;;;;3.00;1.75;;;;;22.18;37.38;101924.25;5072411;27;45548;-75
2023/05/18 05:47:17;;;;;;;;;3.00;1.50;;;;;22.17;37.37;101928.75;5048941;28;71362;-74
2023/05/18 05:49:42;;;;;;;;;2.00;1.50;;;;;22.18;37.24;101929.59;5070090;27;45456;-75
2023/05/18 05:52:07;;;;;;;;;1.25;1.25;;;;;22.18;37.35;101934.94;5062250;27;68864;-75
2023/05/18 05:54:33;;;;;;;;;4.75;2.00;;;;;22.17;37.13;101931.41;5074861;27;63217;-74
2023/05/18 05:56:58;;;;;;;;;2.00;2.00;;;;;22.18;37.02;101933.09;5073663;28;62224;-74
2023/05/18 05:59:23;;;;;;;;;5.75;2.25;;;;;22.18;37.08;101941.09;5062652;28;68365;-74
2023/05/18 06:01:49;;;;;;;;;3.25;0.50;;;;;22.17;37.01;101928.75;5076672;28;45497;-74
2023/05/18 06:04:15;;;;;;;;;2.00;2.00;;;;;22.18;36.96;101932.25;5066011;27;45504;-74
2023/05/18 06:06:42;;;;;;;;;2.25;2.00;;;;;22.17;36.87;101933.22;5072155;27;45437;-74
2023/05/18 06:09:07;;;;;;;;;2.00;2.00;;;;;22.18;37.29;101929.59;5071906;28;45394;-74
2023/05/18 06:11:33;;;;;;;;;3.00;1.50;;;;;22.18;36.98;101935.78;5069029;28;45363;-74
2023/05/18 06:13:59;;;;;;;;;2.25;1.50;;;;;22.18;37.05;101929.59;5074174;27;62525;-74
2023/05/18 06:16:24;;;;;;;;;1.50;1.50;;;;;22.19;37.45;101937.50;5075517;28;45304;-74
2023/05/18 06:18:50;;;;;;;;;3.00;2.00;;;;;22.15;37.42;101935.97;5063694;28;46968;-74
2023/05/18 06:21:15;;;;;;;;;2.00;2.00;;;;;22.18;36.93;101932.25;5075187;27;45349;-77
2023/05/18 06:23:42;;;;;;;;;4.75;2.00;;;;;22.21;37.07;101939.25;5073650;27;65911;-75
2023/05/18 06:26:07;;;;;;;;;2.75;2.00;;;;;22.19;37.36;101934.84;5059151;27;47005;-76
2023/05/18 06:28:33;;;;;;;;;1.25;1.25;;;;;22.19;36.77;101931.31;5059924;28;45858;-75
2023/05/18 06:30:58;;;;;;;;;3.00;2.50;;;;;22.23;36.94;101940.00;5072731;27;63782;-75
2023/05/18 06:33:23;;;;;;;;;3.75;2.00;;;;;22.22;36.83;101935.59;5071663;28;61914;-75
2023/05/18 06:35:49;;;;;;;;;2.75;2.50;;;;;22.24;37.03;101933.72;5070900;27;46451;-75
2023/05/18 06:38:14;;;;;;;;;2.00;2.00;;;;;22.26;37.09;101942.50;5059156;28;45577;-75
2023/05/18 06:40:40;;;;;;;;;1.00;1.00;;;;;22.26;37.03;101934.50;5063738;28;45448;-75
2023/05/18 06:43:05;;;;;;;;;2.25;1.00;;;;;22.27;37.22;101941.56;5075322;28;45263;-75
2023/05/18 06:45:31;;;;;;;;;1.25;1.25;;;;;22.27;36.78;101939.75;5070740;27;45599;-76
2023/05/18 06:47:56;;;;;;;;;1.00;1.00;;;;;22.27;37.46;101939.75;5076564;27;45769;-75
2023/05/18 06:50:21;;;;;;;;;3.25;2.75;;;;;22.32;37.25;101942.16;5070320;28;45568;-75
2023/05/18 06:52:47;;;;;;;;;2.00;2.00;;;;;22.33;36.65;101935.91;5058116;28;57104;-75
2023/05/18 06:55:14;;;;;;;;;2.00;1.50;;;;;22.33;36.99;101939.41;5078917;27;62066;-75
2023/05/18 06:57:40;;;;;;;;;1.00;1.00;;;;;22.37;36.92;101951.63;5072490;28;45238;-75
2023/05/18 07:00:09;;;;;;;;;2.00;2.00;;;;;22.39;36.63;101945.34;5060839;28;45490;-75
2023/05/18 07:02:34;;;;;;;;;0.25;0.25;;;;;22.37;37.00;101942.78;5067067;28;45498;-75
2023/05/18 07:05:00;;;;;;;;;1.50;1.50;;;;;22.38;36.67;101939.13;5072081;27;46447;-75
2023/05/18 07:07:25;;;;;;;;;3.00;2.00;;;;;22.41;36.95;101940.78;5058631;28;45366;-75
2023/05/18 07:09:53;;;;;;;;;1.75;1.75;;;;;22.42;36.82;101937.19;5052212;28;45437;-75
2023/05/18 07:12:19;;;;;;;;;1.50;1.25;;;;;22.44;36.83;101945.94;5063394;27;45820;-75
2023/05/18 07:14:44;;;;;;;;;6.25;4.00;;;;;22.45;37.02;101948.53;5051889;28;47318;-75
2023/05/18 07:17:09;;;;;;;;;7.25;5.00;;;;;22.45;36.84;101940.53;5071207;28;45634;-78
2023/05/18 07:19:35;;;;;;;;;6.25;4.75;;;;;22.44;36.52;101940.63;5066211;28;45399;-72
2023/05/18 07:22:00;;;;;;;;;6.50;5.50;;;;;22.43;36.38;101941.56;5080999;27;45424;-74
2023/05/18 07:24:26;;;;;;;;;9.50;7.00;;;;;22.40;36.02;101945.28;5057833;28;47735;-69
2023/05/18 07:26:51;;;;;;;;;9.50;6.50;;;;;22.34;35.52;101938.47;5065254;28;67908;-74
2023/05/18 07:29:16;;;;;;;;;6.75;6.25;;;;;22.33;35.31;101941.25;5069435;28;45291;-71
2023/05/18 07:31:42;;;;;;;;;5.00;4.00;;;;;22.30;35.31;101939.59;5077362;27;67781;-71
2023/05/18 07:34:07;;;;;;;;;9.00;6.25;;;;;22.26;35.49;101948.69;5067615;27;46448;-71
2023/05/18 07:36:33;;;;;;;;;7.00;5.75;;;;;22.24;35.23;101945.25;5076271;28;66789;-71
2023/05/18 07:39:00;;;;;;;;;10.00;5.00;;;;;22.21;34.87;101937.44;5068466;28;45967;-71
2023/05/18 07:41:26;;;;;;;;;7.75;7.00;;;;;22.19;34.58;101944.66;5071260;28;45375;-70
2023/05/18 07:43:52;;;;;;;;;6.00;5.00;;;;;22.15;35.08;101941.31;5072911;27;46262;-72
2023/05/18 07:46:17;;;;;;;;;6.25;3.50;;;;;22.12;34.49;101932.63;5070469;27;45764;-72
2023/05/18 07:48:44;;;;;;;;;5.00;5.00;;;;;22.09;34.92;101932.78;5077698;28;62650;-72
2023/05/18 07:51:10;;;;;;;;;7.00;5.25;;;;;22.07;34.57;101935.53;5063912;28;45435;-72
2023/05/18 07:53:36;;;;;;;;;7.50;4.75;;;;;22.03;34.84;101925.13;5054511;28;47411;-72
2023/05/18 07:56:02;;;;;;;;;5.00;5.00;;;;;22.02;34.72;101926.94;5066315;27;45947;-71
2023/05/18 07:58:28;;;;;;;;;5.00;4.25;;;;;22.01;34.54;101930.56;5057829;28;45748;-71
2023/05/18 08:00:53;;;;;;;;;6.50;5.50;;;;;21.97;34.57;101929.88;5058684;28;45559;-71
2023/05/18 08:03:19;;;;;;;;;6.00;5.25;;;;;21.98;34.61;101918.25;5070296;27;72535;-72
2023/05/18 08:05:44;;;;;;;;;9.25;5.50;;;;;21.96;34.60;101919.28;5071863;27;68059;-71
2023/05/18 08:08:14;;;;;;;;;6.75;4.75;;;;;21.96;34.66;101924.63;5054136;28;45380;-71
2023/05/18 08:10:40;;;;;;;;;9.00;9.00;;;;;21.92;34.82;101917.72;5067251;27;46145;-73
2023/05/18 08:13:05;;;;;;;;;9.25;6.00;;;;;21.91;34.49;101919.53;5072135;28;45384;-75
2023/05/18 08:15:31;;;;;;;;;7.00;6.00;;;;;21.92;34.48;101931.06;5077459;27;45265;-75
2023/05/18 08:17:56;;;;;;;;;7.50;6.00;;;;;21.90;34.75;101919.63;5060613;28;45373;-76
2023/05/18 08:20:22;;;;;;;;;9.50;5.00;;;;;21.88;34.83;101914.38;5065882;27;45438;-76
2023/05/18 08:22:47;;;;;;;;;7.00;6.00;;;;;21.89;34.51;101921.44;5066944;28;46041;-76
2023/05/18 08:25:13;;;;;;;;;7.50;6.00;;;;;21.89;34.09;101917.91;5073902;27;45407;-76
2023/05/18 08:27:38;;;;;;;;;8.00;5.50;;;;;21.89;34.23;101917.91;5068250;28;45403;-75
2023/05/18 08:30:04;;;;;;;;;7.00;5.25;;;;;21.89;34.11;101915.25;5067168;27;45282;-75
2023/05/18 08:32:30;;;;;;;;;7.00;7.00;;;;;21.87;33.89;101917.13;5071919;28;48394;-75
2023/05/18 08:34:56;;;;;;;;;6.00;6.00;;;;;21.89;33.86;101909.94;5075995;27;45520;-75
2023/05/18 08:37:21;;;;;;;;;8.50;6.00;;;;;21.87;34.46;101912.69;5067402;28;45469;-76
2023/05/18 08:39:46;;;;;;;;;5.00;4.25;;;;;21.85;34.13;101905.69;5073138;28;47715;-76
2023/05/18 08:42:19;;;;;;;;;5.75;5.75;;;;;21.86;33.82;101915.44;5068227;28;46300;-73
2023/05/18 08:45:06;;;;;;;;;8.50;6.25;;;;;21.86;34.18;101907.44;5072575;27;45479;-74
2023/05/18 08:47:33;;;;;;;;;7.00;4.00;;;;;21.85;33.91;101911.03;5064521;28;45464;-74
2023/05/18 08:50:01;;;;;;;;;9.50;6.75;;;;;21.84;33.94;101907.50;5075986;28;45503;-74
2023/05/18 08:52:32;;;;;;;;;6.00;5.75;;;;;21.82;33.90;101905.88;5059828;28;47695;-74
2023/05/18 08:54:59;;;;;;;;;7.50;6.50;;;;;21.83;33.42;101902.25;5076709;27;45475;-75
2023/05/18 08:57:25;;;;;;;;;6.50;6.00;;;;;21.84;33.63;101912.00;5065931;28;45423;-75
2023/05/18 08:59:52;;;;;;;;;7.75;5.00;;;;;21.83;33.53;101907.59;5064312;28;45383;-75
2023/05/18 09:02:17;;;;;;;;;7.25;5.00;;;;;21.81;33.57;101913.00;5071522;27;46149;-76
2023/05/18 09:04:45;;;;;;;;;8.75;4.25;;;;;21.82;33.74;101903.22;5071660;27;45331;-76
2023/05/18 09:07:12;;;;;;;;;8.50;4.00;;;;;21.79;33.31;101907.75;5069243;28;45407;-74
2023/05/18 09:09:37;;;;;;;;;6.75;6.00;;;;;21.77;33.52;101908.78;5068007;28;45678;-78
2023/05/18 09:12:03;;;;;;;;;9.50;5.00;;;;;21.74;33.44;101892.97;5070419;28;47688;-75
2023/05/18 09:14:30;;;;;;;;;5.75;3.00;;;;;21.76;33.50;101899.06;5074193;27;47153;-77
2023/05/18 09:16:56;;;;;;;;;7.25;5.75;;;;;21.73;34.04;101900.13;5059298;28;45319;-79
2023/05/18 09:19:23;;;;;;;;;6.25;4.50;;;;;21.78;34.05;101905.19;5079886;27;62391;-76
2023/05/18 09:21:48;;;;;;;;;6.00;3.50;;;;;21.79;34.32;101904.25;5058852;28;48180;-75
2023/05/18 09:24:14;;;;;;;;;7.50;4.00;;;;;21.79;34.63;101897.09;5084243;27;65974;-72
2023/05/18 09:26:39;;;;;;;;;4.00;4.00;;;;;21.83;34.39;101899.59;5058011;28;45392;-73
2023/05/18 09:29:19;;;;;;;;;10.25;5.25;;;;;21.89;34.84;101901.94;5080708;27;45374;-72
2023/05/18 09:31:47;;;;;;;;;5.25;3.25;;;;;21.88;35.01;101895.72;5073613;28;47165;-74
2023/05/18 09:34:13;;;;;;;;;4.00;3.25;;;;;21.93;34.89;101898.13;5072776;27;45557;-76
2023/05/18 09:36:39;;;;;;;;;6.75;4.00;;;;;21.98;35.25;101898.75;5051944;28;45781;-76
2023/05/18 09:39:11;;;;;;;;;5.00;3.25;;;;;22.01;35.47;101898.56;5058345;28;45612;-75
2023/05/18 09:41:40;;;;;;;;;7.00;4.00;;;;;22.04;35.42;101895.72;5071377;28;46556;-77
2023/05/18 09:44:16;;;;;;;;;4.50;4.50;;;;;22.09;35.71;101904.31;5065761;27;45550;-77
2023/05/18 09:46:41;;;;;;;;;5.00;5.00;;;;;22.06;35.93;101888.50;5054355;28;45465;-78
2023/05/18 09:49:08;;;;;;;;;7.50;3.75;;;;;22.11;36.05;101894.41;5048698;28;46173;-76
2023/05/18 09:51:34;;;;;;;;;7.25;4.25;;;;;22.15;35.83;101895.97;5060148;28;48277;-77
2023/05/18 09:54:03;;;;;;;;;8.75;3.75;;;;;22.18;35.85;101884.25;5078096;27;45958;-77
2023/05/18 09:56:29;;;;;;;;;4.75;4.75;;;;;22.22;36.43;101895.59;5053587;28;45403;-76
2023/05/18 09:58:55;;;;;;;;;3.50;3.00;;;;;22.24;36.36;101899.03;5048919;28;45521;-74
2023/05/18 10:01:20;;;;;;;;;5.00;4.75;;;;;22.30;36.30;101901.41;5061213;28;47037;-74
2023/05/18 10:03:47;;;;;;;;;5.25;4.50;;;;;22.29;36.40;101889.88;5092753;27;45493;-75
2023/05/18 10:06:12;;;;;;;;;5.75;2.25;;;;;22.28;36.28;101868.63;5077819;28;45558;-74
2023/05/18 10:08:38;;;;;;;;;6.00;3.75;;;;;22.35;36.45;101889.50;5073329;28;45300;-77
2023/05/18 10:11:04;;;;;;;;;3.50;3.00;;;;;22.36;36.22;101880.56;5074646;28;48354;-72
2023/05/18 10:13:31;;;;;;;;;4.75;3.00;;;;;22.35;36.46;101878.00;5057633;28;45462;-74
2023/05/18 10:15:58;;;;;;;;;8.50;2.25;;;;;22.42;36.16;101889.16;5061900;28;45254;-72
2023/05/18 10:18:29;;;;;;;;;3.50;2.25;;;;;22.43;36.57;101881.06;5055292;28;45589;-74
2023/05/18 10:20:56;;;;;;;;;3.00;3.00;;;;;22.45;36.26;101880.97;5057352;28;48298;-72
2023/05/18 10:23:22;;;;;;;;;6.25;3.25;;;;;22.46;36.14;101880.88;5073992;28;45565;-73
2023/05/18 10:25:48;;;;;;;;;5.50;4.00;;;;;22.44;36.08;101871.25;5070087;27;45385;-73
2023/05/18 10:28:27;;;;;;;;;5.00;3.00;;;;;22.47;36.32;101876.41;5060156;28;45349;-69
2023/05/18 10:30:55;;;;;;;;;3.00;3.00;;;;;22.50;36.34;101885.06;5057888;28;47447;-66
2023/05/18 10:33:27;;;;;;;;;7.50;3.25;;;;;22.50;36.24;101877.06;5042102;28;45762;-68
2023/05/18 10:35:53;;;;;;;;;5.75;2.25;;;;;22.51;36.46;101878.81;5054658;28;45454;-70
2023/05/18 10:38:26;;;;;;;;;4.75;2.25;;;;;22.52;36.41;101866.31;5070419;28;46939;-76
2023/05/18 10:40:57;;;;;;;;;3.75;3.00;;;;;22.52;37.56;101869.88;5070181;28;45397;-78
2023/05/18 10:43:26;;;;;;;;;2.25;2.25;;;;;22.55;37.22;101875.00;5071470;28;45273;-73
2023/05/18 10:45:56;;;;;;;;;6.50;3.00;;;;;22.53;37.42;101863.56;5057367;28;45822;-73
2023/05/18 10:48:22;;;;;;;;;2.50;2.25;;;;;22.56;37.27;101865.19;5084426;27;45703;-71
2023/05/18 10:50:49;;;;;;;;;5.25;2.50;;;;;22.57;37.03;101869.56;5057688;28;47289;-74
2023/05/18 10:53:19;;;;;;;;;4.50;3.00;;;;;22.58;37.54;101865.13;5061379;28;45387;-78
2023/05/18 10:55:47;;;;;;;;;4.50;3.25;;;;;22.56;37.19;101862.53;5052969;28;45482;-75
2023/05/18 10:58:14;;;;;;;;;4.00;4.00;;;;;22.54;37.37;101853.75;5080321;27;45462;-82
2023/05/18 11:00:43;;;;;;;;;2.50;2.00;;;;;22.57;37.36;101853.56;5071414;27;47209;-73
2023/05/18 11:03:13;;;;;;;;;2.75;2.75;;;;;22.56;37.34;101855.38;5070961;28;45589;-72
2023/05/18 11:05:39;;;;;;;;;5.75;4.25;;;;;22.52;37.32;101852.97;5075972;27;45376;-73
2023/05/18 11:08:04;;;;;;;;;6.25;4.25;;;;;22.57;37.80;101853.56;5066156;28;45925;-67
2023/05/18 11:10:41;;;;;;;;;39.50;32.75;;;;;22.56;38.24;101855.38;5074378;28;47120;-67
2023/05/18 11:13:07;;;;;;;;;50.75;41.25;;;;;22.54;38.62;101854.63;5065752;28;45937;-67
2023/05/18 11:15:53;;;;;;;;;72.75;61.00;;;;;22.56;38.99;101859.88;5075583;27;45518;-67
2023/05/18 11:18:18;;;;;;;;;78.50;66.00;;;;;22.59;39.84;101858.81;5057803;28;45626;-69
2023/05/18 11:20:47;;;;;;;;;79.25;67.00;;;;;22.60;40.19;101863.22;5061616;28;46459;-70
2023/05/18 11:23:19;;;;;;;;;80.00;68.50;;;;;22.62;40.43;101861.31;5057471;28;45315;-69